QJT9040 ZHLY-ZHLY
Flight info
| Callsign | QJT9040 |
|---|---|
| Flight time | 0h 4m |
| Altitude | 999 |
| Route | / |
| Aircraft | SA60/L-SDE2E3FGHIJ1RWXY/LB1 |
Departure
| Time | 2026-05-07 14:00 |
|---|---|
| Airport | Luoyang Beijiao Airport (ZHLY) |
Arrival
| Time | 2026-05-07 14:05 |
|---|---|
| Airport | Luoyang Beijiao Airport (ZHLY) |
| Time | Latitude | Longitude | Altitude | Speed | Heading |
|---|---|---|---|---|---|
| 2026-05-07 13:50 | 34.73722 | 112.38000 | 853 ft | 0 kts | 165° |
| 2026-05-07 13:57 | 34.73721 | 112.38000 | 853 ft | 3 kts | 182° |
| 2026-05-07 13:57 | 34.73738 | 112.37906 | 848 ft | 5 kts | 337° |
| 2026-05-07 13:57 | 34.73765 | 112.37895 | 852 ft | 10 kts | 340° |
| 2026-05-07 13:58 | 34.73760 | 112.37806 | 851 ft | 14 kts | 256° |
| 2026-05-07 13:58 | 34.73732 | 112.37675 | 850 ft | 18 kts | 255° |
| 2026-05-07 13:58 | 34.73721 | 112.37522 | 843 ft | 20 kts | 332° |
| 2026-05-07 13:58 | 34.73773 | 112.37501 | 848 ft | 0 kts | 345° |
| 2026-05-07 13:59 | 34.73774 | 112.37500 | 850 ft | 2 kts | 345° |
| 2026-05-07 13:59 | 34.73841 | 112.37498 | 852 ft | 11 kts | 31° |
| 2026-05-07 13:59 | 34.73874 | 112.37550 | 847 ft | 0 kts | 72° |
| 2026-05-07 13:59 | 34.73880 | 112.37578 | 852 ft | 20 kts | 76° |
| 2026-05-07 14:00 | 34.73942 | 112.37936 | 946 ft | 54 kts | 80° |
| 2026-05-07 14:00 | 34.74042 | 112.38409 | 1153 ft | 63 kts | 68° |
| 2026-05-07 14:00 | 34.74179 | 112.38932 | 1410 ft | 66 kts | 75° |
| 2026-05-07 14:00 | 34.74266 | 112.39526 | 1655 ft | 69 kts | 78° |
| 2026-05-07 14:01 | 34.74361 | 112.40089 | 1919 ft | 75 kts | 70° |
| 2026-05-07 14:01 | 34.74729 | 112.40526 | 2036 ft | 95 kts | 7° |
| 2026-05-07 14:01 | 34.75360 | 112.40139 | 2049 ft | 93 kts | 356° |
| 2026-05-07 14:01 | 34.75990 | 112.40024 | 1812 ft | 57 kts | 1° |
| 2026-05-07 14:02 | 34.76544 | 112.39618 | 1921 ft | 116 kts | 271° |
| 2026-05-07 14:02 | 34.76429 | 112.38684 | 1901 ft | 105 kts | 253° |
| 2026-05-07 14:02 | 34.76196 | 112.37673 | 1920 ft | 127 kts | 252° |
| 2026-05-07 14:02 | 34.75925 | 112.36628 | 1874 ft | 128 kts | 249° |
| 2026-05-07 14:03 | 34.75598 | 112.35609 | 1752 ft | 131 kts | 246° |
| 2026-05-07 14:03 | 34.75284 | 112.34691 | 1747 ft | 101 kts | 247° |
| 2026-05-07 14:03 | 34.74769 | 112.34314 | 1678 ft | 93 kts | 154° |
| 2026-05-07 14:03 | 34.74162 | 112.34601 | 1558 ft | 86 kts | 145° |
| 2026-05-07 14:04 | 34.73652 | 112.34922 | 1422 ft | 73 kts | 136° |
| 2026-05-07 14:04 | 34.73500 | 112.35380 | 1289 ft | 52 kts | 89° |
| 2026-05-07 14:04 | 34.73533 | 112.35826 | 1215 ft | 55 kts | 78° |
| 2026-05-07 14:04 | 34.73600 | 112.36282 | 1152 ft | 55 kts | 74° |
| 2026-05-07 14:05 | 34.73703 | 112.36738 | 1107 ft | 61 kts | 68° |
| 2026-05-07 14:05 | 34.73811 | 112.37247 | 953 ft | 60 kts | 72° |
| 2026-05-07 14:05 | 34.73900 | 112.37673 | 861 ft | 44 kts | 72° |
| 2026-05-07 14:05 | 34.73944 | 112.37879 | 849 ft | 31 kts | 73° |
| 2026-05-07 14:06 | 34.74007 | 112.38202 | 910 ft | 52 kts | 72° |
| 2026-05-07 14:06 | 34.74110 | 112.38673 | 1124 ft | 62 kts | 75° |
| 2026-05-07 14:06 | 34.74189 | 112.39192 | 1417 ft | 60 kts | 71° |
| 2026-05-07 14:06 | 34.74298 | 112.39725 | 1580 ft | 71 kts | 73° |
| 2026-05-07 14:07 | 34.74545 | 112.40297 | 1641 ft | 88 kts | 34° |
| 2026-05-07 14:07 | 34.74929 | 112.39809 | 1651 ft | 113 kts | 260° |
| 2026-05-07 14:07 | 34.74815 | 112.38820 | 1671 ft | 117 kts | 265° |
| 2026-05-07 14:07 | 34.74636 | 112.37913 | 1877 ft | 105 kts | 243° |
| 2026-05-07 14:08 | 34.74461 | 112.37018 | 1946 ft | 115 kts | 266° |
| 2026-05-07 14:08 | 34.74423 | 112.36088 | 2050 ft | 108 kts | 268° |
| 2026-05-07 14:08 | 34.74350 | 112.35245 | 2070 ft | 103 kts | 261° |
| 2026-05-07 14:08 | 34.74194 | 112.34486 | 2018 ft | 108 kts | 254° |
| 2026-05-07 14:09 | 34.73956 | 112.33689 | 1943 ft | 89 kts | 211° |
| 2026-05-07 14:09 | 34.73484 | 112.33694 | 1875 ft | 69 kts | 145° |
| 2026-05-07 14:09 | 34.73057 | 112.33984 | 1785 ft | 58 kts | 106° |
| 2026-05-07 14:09 | 34.73210 | 112.34448 | 1609 ft | 64 kts | 65° |
| 2026-05-07 14:10 | 34.73360 | 112.35006 | 1441 ft | 72 kts | 76° |
| 2026-05-07 14:10 | 34.73476 | 112.35594 | 1283 ft | 70 kts | 74° |
| 2026-05-07 14:10 | 34.73592 | 112.36155 | 1135 ft | 83 kts | 71° |
| 2026-05-07 14:10 | 34.73748 | 112.36928 | 1101 ft | 101 kts | 75° |
| 2026-05-07 14:11 | 34.73915 | 112.37751 | 870 ft | 94 kts | 73° |
| 2026-05-07 14:11 | 34.74050 | 112.38404 | 856 ft | 70 kts | 73° |
| 2026-05-07 14:11 | 34.74171 | 112.38982 | 860 ft | 72 kts | 74° |
| 2026-05-07 14:11 | 34.74291 | 112.39572 | 871 ft | 72 kts | 72° |
| 2026-05-07 14:12 | 34.74417 | 112.40142 | 1013 ft | 69 kts | 71° |
| 2026-05-07 14:12 | 34.74724 | 112.40483 | 1217 ft | 91 kts | 341° |
| 2026-05-07 14:12 | 34.74911 | 112.39746 | 1464 ft | 99 kts | 264° |
| 2026-05-07 14:12 | 34.74780 | 112.38857 | 1586 ft | 114 kts | 258° |
| 2026-05-07 14:13 | 34.74615 | 112.37913 | 1664 ft | 116 kts | 264° |
| 2026-05-07 14:13 | 34.74543 | 112.37020 | 1788 ft | 101 kts | 265° |
| 2026-05-07 14:13 | 34.74455 | 112.36166 | 1849 ft | 98 kts | 259° |
| 2026-05-07 14:13 | 34.74333 | 112.35328 | 1862 ft | 102 kts | 257° |
| 2026-05-07 14:14 | 34.74169 | 112.34484 | 1870 ft | 105 kts | 256° |
| 2026-05-07 14:14 | 34.73988 | 112.33610 | 1799 ft | 112 kts | 252° |
| 2026-05-07 14:14 | 34.73540 | 112.33000 | 1799 ft | 87 kts | 178° |
| 2026-05-07 14:14 | 34.73150 | 112.33268 | 1785 ft | 57 kts | 106° |
| 2026-05-07 14:15 | 34.73136 | 112.33815 | 1584 ft | 74 kts | 80° |
| 2026-05-07 14:15 | 34.73230 | 112.34377 | 1410 ft | 57 kts | 75° |
| 2026-05-07 14:15 | 34.73312 | 112.34817 | 1326 ft | 48 kts | 77° |
| 2026-05-07 14:15 | 34.73405 | 112.35239 | 1251 ft | 53 kts | 72° |
| 2026-05-07 14:16 | 34.73480 | 112.35664 | 1274 ft | 52 kts | 70° |
| 2026-05-07 14:16 | 34.73571 | 112.36098 | 1250 ft | 55 kts | 75° |
| 2026-05-07 14:16 | 34.73666 | 112.36548 | 1200 ft | 55 kts | 69° |
| 2026-05-07 14:16 | 34.73756 | 112.37023 | 1040 ft | 57 kts | 70° |
| 2026-05-07 14:17 | 34.73854 | 112.37455 | 891 ft | 46 kts | 72° |
| 2026-05-07 14:17 | 34.73923 | 112.37780 | 855 ft | 37 kts | 68° |
| 2026-05-07 14:17 | 34.73986 | 112.38086 | 855 ft | 35 kts | 72° |
| 2026-05-07 14:17 | 34.74053 | 112.38369 | 880 ft | 45 kts | 71° |
| 2026-05-07 14:18 | 34.74132 | 112.38834 | 1012 ft | 66 kts | 75° |
| 2026-05-07 14:18 | 34.74226 | 112.39394 | 1311 ft | 61 kts | 78° |
| 2026-05-07 14:18 | 34.74327 | 112.39959 | 1439 ft | 70 kts | 75° |
| 2026-05-07 14:18 | 34.74406 | 112.40605 | 1466 ft | 88 kts | 68° |
| 2026-05-07 14:19 | 34.74995 | 112.40628 | 1560 ft | 109 kts | 315° |
| 2026-05-07 14:19 | 34.75065 | 112.39729 | 1682 ft | 110 kts | 258° |
| 2026-05-07 14:19 | 34.74948 | 112.38798 | 1864 ft | 109 kts | 258° |
| 2026-05-07 14:19 | 34.74785 | 112.37901 | 2034 ft | 110 kts | 258° |
| 2026-05-07 14:20 | 34.74654 | 112.37030 | 2337 ft | 100 kts | 248° |
| 2026-05-07 14:20 | 34.74433 | 112.36231 | 2262 ft | 87 kts | 265° |
| 2026-05-07 14:20 | 34.74358 | 112.35398 | 1941 ft | 122 kts | 289° |
| 2026-05-07 14:20 | 34.74285 | 112.34498 | 2094 ft | 105 kts | 247° |
| 2026-05-07 14:21 | 34.74035 | 112.33688 | 2141 ft | 100 kts | 248° |
| 2026-05-07 14:21 | 34.73793 | 112.32926 | 2182 ft | 94 kts | 245° |
| 2026-05-07 14:21 | 34.73550 | 112.32157 | 2177 ft | 99 kts | 249° |
| 2026-05-07 14:21 | 34.73294 | 112.31429 | 2158 ft | 94 kts | 199° |
| 2026-05-07 14:22 | 34.72774 | 112.31590 | 2157 ft | 75 kts | 131° |
| 2026-05-07 14:22 | 34.72721 | 112.32077 | 2140 ft | 68 kts | 71° |
| 2026-05-07 14:22 | 34.72862 | 112.32542 | 2027 ft | 55 kts | 72° |
| 2026-05-07 14:22 | 34.73001 | 112.32986 | 1820 ft | 57 kts | 72° |
| 2026-05-07 14:23 | 34.73063 | 112.33455 | 1645 ft | 56 kts | 75° |
| 2026-05-07 14:23 | 34.73135 | 112.33907 | 1538 ft | 53 kts | 73° |
| 2026-05-07 14:23 | 34.73222 | 112.34352 | 1393 ft | 56 kts | 76° |
| 2026-05-07 14:23 | 34.73325 | 112.34834 | 1255 ft | 61 kts | 72° |
| 2026-05-07 14:24 | 34.73414 | 112.35343 | 1165 ft | 60 kts | 68° |
| 2026-05-07 14:24 | 34.73518 | 112.35798 | 1100 ft | 51 kts | 70° |
| 2026-05-07 14:24 | 34.73594 | 112.36217 | 1046 ft | 56 kts | 72° |
| 2026-05-07 14:24 | 34.73690 | 112.36682 | 1072 ft | 57 kts | 70° |